N417MK KCXO-KEDC
Flight info
| Callsign | N417MK |
|---|---|
| Flight time | 1h 10m |
| Altitude | 16000 |
| Route | BOCCK MNURE POTRR2 |
| Aircraft | BT36/L-BDFGLORY/S |
Departure
| Time | 2026-05-05 01:39 |
|---|---|
| Airport | Conroe-North Houston Regional Airport (KCXO) |
Arrival
| Time | 2026-05-05 02:50 |
|---|---|
| Airport | Austin Executive Airport (KEDC) |
| Time | Latitude | Longitude | Altitude | Speed | Heading |
|---|---|---|---|---|---|
| 2026-05-05 01:25 | 30.34611 | -95.41029 | 242 ft | 0 kts | 234° |
| 2026-05-05 01:33 | 30.34609 | -95.41034 | 242 ft | 5 kts | 249° |
| 2026-05-05 01:33 | 30.34653 | -95.41073 | 242 ft | 10 kts | 329° |
| 2026-05-05 01:33 | 30.34685 | -95.41107 | 242 ft | 10 kts | 313° |
| 2026-05-05 01:33 | 30.34731 | -95.41165 | 242 ft | 8 kts | 310° |
| 2026-05-05 01:34 | 30.34776 | -95.41177 | 242 ft | 7 kts | 359° |
| 2026-05-05 01:34 | 30.34816 | -95.41149 | 242 ft | 8 kts | 76° |
| 2026-05-05 01:34 | 30.34815 | -95.41108 | 242 ft | 0 kts | 81° |
| 2026-05-05 01:34 | 30.34816 | -95.41102 | 242 ft | 4 kts | 85° |
| 2026-05-05 01:35 | 30.34840 | -95.41066 | 242 ft | 10 kts | 328° |
| 2026-05-05 01:35 | 30.34921 | -95.41138 | 242 ft | 20 kts | 304° |
| 2026-05-05 01:35 | 30.35038 | -95.41223 | 242 ft | 22 kts | 326° |
| 2026-05-05 01:35 | 30.35160 | -95.41321 | 242 ft | 21 kts | 327° |
| 2026-05-05 01:36 | 30.35283 | -95.41417 | 241 ft | 21 kts | 327° |
| 2026-05-05 01:36 | 30.35406 | -95.41514 | 241 ft | 21 kts | 322° |
| 2026-05-05 01:36 | 30.35530 | -95.41611 | 239 ft | 22 kts | 326° |
| 2026-05-05 01:36 | 30.35650 | -95.41708 | 241 ft | 21 kts | 326° |
| 2026-05-05 01:37 | 30.35769 | -95.41802 | 241 ft | 21 kts | 326° |
| 2026-05-05 01:37 | 30.35889 | -95.41893 | 241 ft | 20 kts | 325° |
| 2026-05-05 01:37 | 30.36005 | -95.41987 | 241 ft | 20 kts | 324° |
| 2026-05-05 01:37 | 30.36119 | -95.42080 | 241 ft | 19 kts | 325° |
| 2026-05-05 01:38 | 30.36194 | -95.42132 | 241 ft | 8 kts | 355° |
| 2026-05-05 01:38 | 30.36231 | -95.42094 | 241 ft | 7 kts | 66° |
| 2026-05-05 01:38 | 30.36247 | -95.42037 | 241 ft | 7 kts | 93° |
| 2026-05-05 01:38 | 30.36211 | -95.41993 | 241 ft | 12 kts | 145° |
| 2026-05-05 01:39 | 30.36025 | -95.41846 | 242 ft | 62 kts | 145° |
| 2026-05-05 01:39 | 30.35525 | -95.41427 | 383 ft | 104 kts | 143° |
| 2026-05-05 01:39 | 30.34945 | -95.40892 | 794 ft | 110 kts | 140° |
| 2026-05-05 01:39 | 30.34308 | -95.40408 | 1222 ft | 107 kts | 162° |
| 2026-05-05 01:40 | 30.33588 | -95.40368 | 1690 ft | 102 kts | 189° |
| 2026-05-05 01:40 | 30.32987 | -95.40744 | 2211 ft | 99 kts | 217° |
| 2026-05-05 01:40 | 30.32632 | -95.41396 | 2669 ft | 96 kts | 239° |
| 2026-05-05 01:40 | 30.32525 | -95.42172 | 3030 ft | 100 kts | 256° |
| 2026-05-05 01:41 | 30.32526 | -95.43002 | 3310 ft | 104 kts | 258° |
| 2026-05-05 01:41 | 30.32522 | -95.43857 | 3560 ft | 108 kts | 261° |
| 2026-05-05 01:41 | 30.32568 | -95.44719 | 3883 ft | 107 kts | 265° |
| 2026-05-05 01:41 | 30.32617 | -95.45566 | 4209 ft | 104 kts | 259° |
| 2026-05-05 01:42 | 30.32517 | -95.46384 | 4516 ft | 102 kts | 249° |
| 2026-05-05 01:42 | 30.32299 | -95.47173 | 4794 ft | 102 kts | 244° |
| 2026-05-05 01:42 | 30.32001 | -95.47879 | 5136 ft | 97 kts | 238° |
| 2026-05-05 01:42 | 30.31666 | -95.48534 | 5466 ft | 92 kts | 238° |
| 2026-05-05 01:43 | 30.31343 | -95.49149 | 5804 ft | 88 kts | 239° |
| 2026-05-05 01:43 | 30.31024 | -95.49753 | 6090 ft | 91 kts | 242° |
| 2026-05-05 01:43 | 30.30686 | -95.50422 | 6300 ft | 100 kts | 243° |
| 2026-05-05 01:43 | 30.30322 | -95.51137 | 6502 ft | 105 kts | 242° |
| 2026-05-05 01:44 | 30.29942 | -95.51868 | 6711 ft | 107 kts | 242° |
| 2026-05-05 01:44 | 30.29552 | -95.52609 | 6923 ft | 109 kts | 242° |
| 2026-05-05 01:44 | 30.29158 | -95.53362 | 7135 ft | 110 kts | 243° |
| 2026-05-05 01:44 | 30.28759 | -95.54122 | 7338 ft | 111 kts | 243° |
| 2026-05-05 01:45 | 30.28357 | -95.54889 | 7554 ft | 112 kts | 243° |
| 2026-05-05 01:45 | 30.27955 | -95.55658 | 7776 ft | 111 kts | 243° |
| 2026-05-05 01:45 | 30.27555 | -95.56420 | 8006 ft | 110 kts | 243° |
| 2026-05-05 01:45 | 30.27156 | -95.57177 | 8244 ft | 110 kts | 243° |
| 2026-05-05 01:46 | 30.26761 | -95.57934 | 8484 ft | 110 kts | 244° |
| 2026-05-05 01:46 | 30.26366 | -95.58692 | 8731 ft | 110 kts | 244° |
| 2026-05-05 01:46 | 30.25970 | -95.59447 | 8969 ft | 110 kts | 244° |
| 2026-05-05 01:46 | 30.25575 | -95.60204 | 9214 ft | 110 kts | 244° |
| 2026-05-05 01:47 | 30.25178 | -95.60961 | 9465 ft | 110 kts | 244° |
| 2026-05-05 01:47 | 30.24783 | -95.61718 | 9719 ft | 110 kts | 244° |
| 2026-05-05 01:47 | 30.24385 | -95.62478 | 9956 ft | 110 kts | 245° |
| 2026-05-05 01:47 | 30.23988 | -95.63238 | 10168 ft | 111 kts | 245° |
| 2026-05-05 01:48 | 30.23587 | -95.64007 | 10349 ft | 112 kts | 245° |
| 2026-05-05 01:48 | 30.23182 | -95.64780 | 10585 ft | 113 kts | 246° |
| 2026-05-05 01:48 | 30.22774 | -95.65561 | 10827 ft | 114 kts | 246° |
| 2026-05-05 01:48 | 30.22362 | -95.66347 | 11065 ft | 114 kts | 246° |
| 2026-05-05 01:49 | 30.21951 | -95.67133 | 11292 ft | 115 kts | 247° |
| 2026-05-05 01:49 | 30.21535 | -95.67924 | 11537 ft | 115 kts | 247° |
| 2026-05-05 01:49 | 30.22508 | -95.69181 | 11739 ft | 119 kts | 243° |
| 2026-05-05 01:49 | 30.21779 | -95.69764 | 11988 ft | 139 kts | 209° |
| 2026-05-05 01:50 | 30.20844 | -95.70110 | 12246 ft | 138 kts | 222° |
| 2026-05-05 01:50 | 30.20168 | -95.70842 | 12505 ft | 133 kts | 240° |
| 2026-05-05 01:50 | 30.19621 | -95.71697 | 12753 ft | 134 kts | 245° |
| 2026-05-05 01:50 | 30.19117 | -95.72584 | 13089 ft | 130 kts | 248° |
| 2026-05-05 01:51 | 30.18641 | -95.73451 | 13438 ft | 126 kts | 249° |
| 2026-05-05 01:51 | 30.18185 | -95.74304 | 13778 ft | 123 kts | 250° |
| 2026-05-05 01:51 | 30.17742 | -95.75141 | 14098 ft | 121 kts | 251° |
| 2026-05-05 01:51 | 30.17307 | -95.75969 | 14415 ft | 119 kts | 251° |
| 2026-05-05 01:52 | 30.16887 | -95.76768 | 14732 ft | 117 kts | 251° |
| 2026-05-05 01:52 | 30.16468 | -95.77566 | 15059 ft | 115 kts | 252° |
| 2026-05-05 01:52 | 30.16053 | -95.78355 | 15389 ft | 114 kts | 252° |
| 2026-05-05 01:52 | 30.15646 | -95.79131 | 15681 ft | 112 kts | 253° |
| 2026-05-05 01:53 | 30.15237 | -95.79917 | 15914 ft | 121 kts | 253° |
| 2026-05-05 01:53 | 30.14791 | -95.80828 | 15950 ft | 139 kts | 252° |
| 2026-05-05 01:53 | 30.14279 | -95.81846 | 15974 ft | 153 kts | 250° |
| 2026-05-05 01:53 | 30.13711 | -95.82929 | 15978 ft | 160 kts | 249° |
| 2026-05-05 01:54 | 30.13118 | -95.84037 | 15983 ft | 164 kts | 249° |
| 2026-05-05 01:54 | 30.12512 | -95.85168 | 15987 ft | 166 kts | 249° |
| 2026-05-05 01:54 | 30.11902 | -95.86311 | 15983 ft | 168 kts | 249° |
| 2026-05-05 01:54 | 30.11288 | -95.87467 | 15988 ft | 169 kts | 249° |
| 2026-05-05 01:55 | 30.10675 | -95.88625 | 15985 ft | 168 kts | 249° |
| 2026-05-05 01:55 | 30.10068 | -95.89771 | 15989 ft | 167 kts | 249° |
| 2026-05-05 01:55 | 30.09464 | -95.90911 | 15991 ft | 166 kts | 249° |
| 2026-05-05 01:55 | 30.08864 | -95.92047 | 15991 ft | 166 kts | 249° |
| 2026-05-05 01:56 | 30.08264 | -95.93186 | 16001 ft | 166 kts | 249° |
| 2026-05-05 01:56 | 30.07662 | -95.94329 | 15971 ft | 167 kts | 249° |
| 2026-05-05 01:56 | 30.07059 | -95.95473 | 15977 ft | 167 kts | 249° |
| 2026-05-05 01:56 | 30.06463 | -95.96603 | 15981 ft | 167 kts | 249° |
| 2026-05-05 01:57 | 30.05858 | -95.97749 | 15983 ft | 167 kts | 249° |
| 2026-05-05 01:57 | 30.05252 | -95.98896 | 15986 ft | 167 kts | 249° |
| 2026-05-05 01:57 | 30.04648 | -96.00044 | 15989 ft | 167 kts | 249° |
| 2026-05-05 01:57 | 30.04043 | -96.01191 | 15991 ft | 168 kts | 249° |
| 2026-05-05 01:58 | 30.03435 | -96.02341 | 15990 ft | 168 kts | 249° |
| 2026-05-05 01:58 | 30.02826 | -96.03493 | 16009 ft | 168 kts | 249° |
| 2026-05-05 01:58 | 30.02217 | -96.04643 | 16007 ft | 168 kts | 249° |
| 2026-05-05 01:58 | 30.01608 | -96.05793 | 16005 ft | 168 kts | 249° |
| 2026-05-05 01:59 | 30.00999 | -96.06942 | 16004 ft | 168 kts | 249° |
| 2026-05-05 01:59 | 30.00390 | -96.08092 | 16008 ft | 168 kts | 249° |
| 2026-05-05 01:59 | 29.99782 | -96.09239 | 15994 ft | 167 kts | 249° |
| 2026-05-05 01:59 | 29.99176 | -96.10385 | 15995 ft | 167 kts | 249° |
| 2026-05-05 02:00 | 29.98570 | -96.11530 | 15985 ft | 167 kts | 249° |
| 2026-05-05 02:00 | 29.97966 | -96.12672 | 15989 ft | 167 kts | 249° |
| 2026-05-05 02:00 | 29.97362 | -96.13811 | 15987 ft | 166 kts | 249° |
| 2026-05-05 02:00 | 29.96758 | -96.14949 | 15971 ft | 166 kts | 248° |
| 2026-05-05 02:01 | 29.96155 | -96.16086 | 15976 ft | 166 kts | 248° |
| 2026-05-05 02:01 | 29.95550 | -96.17226 | 15975 ft | 167 kts | 248° |
| 2026-05-05 02:01 | 29.94944 | -96.18367 | 15973 ft | 167 kts | 248° |
| 2026-05-05 02:01 | 29.94338 | -96.19510 | 15970 ft | 167 kts | 248° |
| 2026-05-05 02:02 | 29.93838 | -96.20691 | 15963 ft | 159 kts | 264° |
| 2026-05-05 02:02 | 29.93862 | -96.21926 | 15958 ft | 154 kts | 284° |
| 2026-05-05 02:02 | 29.94079 | -96.23132 | 15951 ft | 154 kts | 283° |
| 2026-05-05 02:02 | 29.94266 | -96.24348 | 15935 ft | 154 kts | 282° |
| 2026-05-05 02:03 | 29.94449 | -96.25568 | 15927 ft | 154 kts | 282° |
| 2026-05-05 02:03 | 29.94633 | -96.26787 | 15919 ft | 154 kts | 283° |
| 2026-05-05 02:03 | 29.94821 | -96.28006 | 15917 ft | 154 kts | 283° |
| 2026-05-05 02:03 | 29.95009 | -96.29225 | 15917 ft | 154 kts | 283° |
| 2026-05-05 02:04 | 29.95199 | -96.30442 | 15916 ft | 154 kts | 283° |
| 2026-05-05 02:04 | 29.95391 | -96.31663 | 15916 ft | 154 kts | 283° |
| 2026-05-05 02:04 | 29.95582 | -96.32881 | 15913 ft | 154 kts | 283° |
| 2026-05-05 02:04 | 29.95773 | -96.34099 | 15911 ft | 154 kts | 283° |
| 2026-05-05 02:05 | 29.95965 | -96.35318 | 15911 ft | 154 kts | 283° |
| 2026-05-05 02:05 | 29.96157 | -96.36535 | 15924 ft | 154 kts | 283° |
| 2026-05-05 02:05 | 29.96349 | -96.37750 | 15917 ft | 154 kts | 283° |
| 2026-05-05 02:05 | 29.96540 | -96.38962 | 15915 ft | 154 kts | 283° |
| 2026-05-05 02:06 | 29.96728 | -96.40172 | 15918 ft | 153 kts | 283° |
| 2026-05-05 02:06 | 29.97045 | -96.41328 | 15925 ft | 152 kts | 299° |
| 2026-05-05 02:06 | 29.97684 | -96.42302 | 15927 ft | 153 kts | 308° |
| 2026-05-05 02:06 | 29.98411 | -96.43201 | 15925 ft | 154 kts | 310° |
| 2026-05-05 02:07 | 29.99159 | -96.44085 | 15924 ft | 154 kts | 310° |
| 2026-05-05 02:07 | 29.99902 | -96.44970 | 15925 ft | 154 kts | 309° |
| 2026-05-05 02:07 | 30.00628 | -96.45873 | 15924 ft | 153 kts | 308° |
| 2026-05-05 02:07 | 30.01336 | -96.46793 | 15907 ft | 153 kts | 307° |
| 2026-05-05 02:08 | 30.02039 | -96.47720 | 15910 ft | 154 kts | 307° |
| 2026-05-05 02:08 | 30.02747 | -96.48646 | 15909 ft | 154 kts | 307° |
| 2026-05-05 02:08 | 30.03456 | -96.49570 | 15908 ft | 154 kts | 307° |
| 2026-05-05 02:08 | 30.04168 | -96.50494 | 15911 ft | 154 kts | 307° |
| 2026-05-05 02:09 | 30.04882 | -96.51418 | 15910 ft | 154 kts | 307° |
| 2026-05-05 02:09 | 30.05596 | -96.52342 | 15911 ft | 154 kts | 307° |
| 2026-05-05 02:09 | 30.06311 | -96.53268 | 15910 ft | 155 kts | 307° |
| 2026-05-05 02:09 | 30.07021 | -96.54185 | 15925 ft | 154 kts | 307° |
| 2026-05-05 02:10 | 30.07734 | -96.55108 | 15923 ft | 154 kts | 308° |
| 2026-05-05 02:10 | 30.08449 | -96.56032 | 15925 ft | 154 kts | 308° |
| 2026-05-05 02:10 | 30.09164 | -96.56957 | 15929 ft | 154 kts | 307° |
| 2026-05-05 02:10 | 30.09879 | -96.57883 | 15929 ft | 154 kts | 307° |
| 2026-05-05 02:11 | 30.10595 | -96.58809 | 15936 ft | 154 kts | 307° |
| 2026-05-05 02:11 | 30.11309 | -96.59735 | 15945 ft | 154 kts | 307° |
| 2026-05-05 02:11 | 30.12035 | -96.60673 | 15936 ft | 155 kts | 308° |
| 2026-05-05 02:11 | 30.12751 | -96.61600 | 15941 ft | 155 kts | 308° |
| 2026-05-05 02:12 | 30.13458 | -96.62514 | 15945 ft | 155 kts | 307° |
| 2026-05-05 02:12 | 30.14894 | -96.64378 | 15957 ft | 154 kts | 307° |
| 2026-05-05 02:12 | 30.15599 | -96.65291 | 15965 ft | 154 kts | 307° |
| 2026-05-05 02:13 | 30.16316 | -96.66219 | 15973 ft | 155 kts | 307° |
| 2026-05-05 02:13 | 30.17031 | -96.67146 | 15977 ft | 155 kts | 307° |
| 2026-05-05 02:13 | 30.17747 | -96.68075 | 15982 ft | 155 kts | 307° |
| 2026-05-05 02:13 | 30.18464 | -96.69005 | 15988 ft | 155 kts | 307° |
| 2026-05-05 02:14 | 30.19181 | -96.69935 | 16004 ft | 155 kts | 307° |
| 2026-05-05 02:14 | 30.19666 | -96.70564 | 16006 ft | 155 kts | 307° |
| 2026-05-05 02:14 | 30.20382 | -96.71493 | 16010 ft | 155 kts | 307° |
| 2026-05-05 02:14 | 30.21098 | -96.72425 | 16015 ft | 155 kts | 307° |
| 2026-05-05 02:15 | 30.21814 | -96.73355 | 16017 ft | 155 kts | 307° |
| 2026-05-05 02:15 | 30.22531 | -96.74287 | 16031 ft | 155 kts | 307° |
| 2026-05-05 02:15 | 30.23246 | -96.75215 | 16046 ft | 154 kts | 307° |
| 2026-05-05 02:15 | 30.23957 | -96.76138 | 15991 ft | 153 kts | 307° |
| 2026-05-05 02:16 | 30.24664 | -96.77057 | 15992 ft | 153 kts | 307° |
| 2026-05-05 02:16 | 30.25369 | -96.77974 | 15987 ft | 152 kts | 307° |
| 2026-05-05 02:16 | 30.26071 | -96.78888 | 15993 ft | 152 kts | 307° |
| 2026-05-05 02:16 | 30.26772 | -96.79799 | 15995 ft | 151 kts | 307° |
| 2026-05-05 02:17 | 30.27471 | -96.80710 | 16000 ft | 151 kts | 307° |
| 2026-05-05 02:17 | 30.28171 | -96.81620 | 16001 ft | 151 kts | 307° |
| 2026-05-05 02:17 | 30.28870 | -96.82531 | 16003 ft | 151 kts | 307° |
| 2026-05-05 02:17 | 30.29570 | -96.83442 | 16008 ft | 152 kts | 307° |
| 2026-05-05 02:18 | 30.30270 | -96.84355 | 16005 ft | 152 kts | 306° |
| 2026-05-05 02:18 | 30.30968 | -96.85269 | 16016 ft | 152 kts | 306° |
| 2026-05-05 02:18 | 30.31670 | -96.86184 | 16017 ft | 152 kts | 307° |
| 2026-05-05 02:18 | 30.32374 | -96.87100 | 16019 ft | 152 kts | 307° |
| 2026-05-05 02:19 | 30.33080 | -96.88019 | 16015 ft | 152 kts | 307° |
| 2026-05-05 02:19 | 30.33784 | -96.88936 | 16040 ft | 153 kts | 307° |
| 2026-05-05 02:19 | 30.34492 | -96.89859 | 16019 ft | 154 kts | 307° |
| 2026-05-05 02:19 | 30.35201 | -96.90784 | 16008 ft | 154 kts | 307° |
| 2026-05-05 02:20 | 30.35910 | -96.91709 | 16003 ft | 153 kts | 307° |
| 2026-05-05 02:20 | 30.36617 | -96.92631 | 16000 ft | 153 kts | 307° |
| 2026-05-05 02:20 | 30.37323 | -96.93553 | 16000 ft | 153 kts | 307° |
| 2026-05-05 02:20 | 30.38029 | -96.94476 | 15998 ft | 153 kts | 307° |
| 2026-05-05 02:21 | 30.38734 | -96.95396 | 15994 ft | 153 kts | 307° |
| 2026-05-05 02:21 | 30.39428 | -96.96303 | 15993 ft | 152 kts | 307° |
| 2026-05-05 02:21 | 30.40130 | -96.97222 | 15994 ft | 152 kts | 307° |
| 2026-05-05 02:21 | 30.40834 | -96.98140 | 15993 ft | 152 kts | 307° |
| 2026-05-05 02:22 | 30.41538 | -96.99058 | 15990 ft | 152 kts | 307° |
| 2026-05-05 02:22 | 30.42240 | -96.99976 | 15998 ft | 152 kts | 307° |
| 2026-05-05 02:22 | 30.42953 | -97.00907 | 15998 ft | 152 kts | 307° |
| 2026-05-05 02:22 | 30.43656 | -97.01827 | 15997 ft | 152 kts | 307° |
| 2026-05-05 02:23 | 30.44358 | -97.02745 | 15997 ft | 152 kts | 307° |
| 2026-05-05 02:23 | 30.45059 | -97.03665 | 15996 ft | 152 kts | 307° |
| 2026-05-05 02:23 | 30.45761 | -97.04583 | 15994 ft | 152 kts | 307° |
| 2026-05-05 02:23 | 30.46453 | -97.05489 | 15993 ft | 152 kts | 306° |
| 2026-05-05 02:24 | 30.47162 | -97.06418 | 15982 ft | 153 kts | 307° |
| 2026-05-05 02:24 | 30.47881 | -97.07362 | 15767 ft | 163 kts | 307° |
| 2026-05-05 02:24 | 30.48641 | -97.08356 | 15555 ft | 166 kts | 307° |
| 2026-05-05 02:24 | 30.49411 | -97.09364 | 15342 ft | 168 kts | 307° |
| 2026-05-05 02:25 | 30.50190 | -97.10386 | 15127 ft | 170 kts | 307° |
| 2026-05-05 02:25 | 30.50975 | -97.11415 | 14915 ft | 171 kts | 308° |
| 2026-05-05 02:25 | 30.51762 | -97.12448 | 14703 ft | 171 kts | 308° |
| 2026-05-05 02:25 | 30.52553 | -97.13485 | 14494 ft | 172 kts | 308° |
| 2026-05-05 02:26 | 30.53344 | -97.14524 | 14281 ft | 172 kts | 308° |
| 2026-05-05 02:26 | 30.54137 | -97.15566 | 14073 ft | 172 kts | 308° |
| 2026-05-05 02:26 | 30.54931 | -97.16607 | 13868 ft | 172 kts | 308° |
| 2026-05-05 02:26 | 30.55717 | -97.17638 | 13654 ft | 169 kts | 308° |
| 2026-05-05 02:27 | 30.56492 | -97.18654 | 13423 ft | 167 kts | 308° |
| 2026-05-05 02:27 | 30.57259 | -97.19664 | 13195 ft | 166 kts | 308° |
| 2026-05-05 02:27 | 30.58020 | -97.20663 | 12965 ft | 164 kts | 308° |
| 2026-05-05 02:27 | 30.58772 | -97.21651 | 12735 ft | 162 kts | 308° |
| 2026-05-05 02:28 | 30.59512 | -97.22623 | 12510 ft | 159 kts | 308° |
| 2026-05-05 02:28 | 30.60242 | -97.23584 | 12290 ft | 158 kts | 308° |
| 2026-05-05 02:28 | 30.60969 | -97.24542 | 12030 ft | 159 kts | 308° |
| 2026-05-05 02:28 | 30.61708 | -97.25517 | 11736 ft | 162 kts | 308° |
| 2026-05-05 02:29 | 30.62451 | -97.26495 | 11497 ft | 160 kts | 308° |
| 2026-05-05 02:29 | 30.63184 | -97.27459 | 11279 ft | 158 kts | 307° |
| 2026-05-05 02:29 | 30.63910 | -97.28415 | 11065 ft | 157 kts | 307° |
| 2026-05-05 02:29 | 30.64632 | -97.29366 | 10850 ft | 156 kts | 307° |
| 2026-05-05 02:30 | 30.65350 | -97.30313 | 10634 ft | 156 kts | 307° |
| 2026-05-05 02:30 | 30.66067 | -97.31259 | 10426 ft | 156 kts | 307° |
| 2026-05-05 02:30 | 30.66785 | -97.32206 | 10217 ft | 156 kts | 307° |
| 2026-05-05 02:30 | 30.67501 | -97.33150 | 10011 ft | 156 kts | 307° |
| 2026-05-05 02:31 | 30.68219 | -97.34097 | 9806 ft | 156 kts | 307° |
| 2026-05-05 02:31 | 30.68937 | -97.35046 | 9584 ft | 157 kts | 307° |
| 2026-05-05 02:31 | 30.69658 | -97.35997 | 9364 ft | 157 kts | 307° |
| 2026-05-05 02:31 | 30.70379 | -97.36949 | 9138 ft | 157 kts | 307° |
| 2026-05-05 02:32 | 30.71101 | -97.37903 | 8912 ft | 157 kts | 307° |
| 2026-05-05 02:32 | 30.71824 | -97.38858 | 8691 ft | 157 kts | 307° |
| 2026-05-05 02:32 | 30.72549 | -97.39815 | 8474 ft | 158 kts | 307° |
| 2026-05-05 02:32 | 30.73277 | -97.40777 | 8258 ft | 159 kts | 307° |
| 2026-05-05 02:33 | 30.74008 | -97.41744 | 8045 ft | 159 kts | 307° |
| 2026-05-05 02:33 | 30.74740 | -97.42714 | 7845 ft | 160 kts | 306° |
| 2026-05-05 02:33 | 30.75442 | -97.43712 | 7622 ft | 158 kts | 297° |
| 2026-05-05 02:33 | 30.75765 | -97.44899 | 7404 ft | 154 kts | 272° |
| 2026-05-05 02:34 | 30.75598 | -97.46118 | 7198 ft | 154 kts | 249° |
| 2026-05-05 02:34 | 30.74972 | -97.47127 | 6985 ft | 156 kts | 226° |
| 2026-05-05 02:34 | 30.74199 | -97.47994 | 6774 ft | 157 kts | 229° |
| 2026-05-05 02:34 | 30.73446 | -97.48911 | 6553 ft | 157 kts | 229° |
| 2026-05-05 02:35 | 30.72691 | -97.49825 | 6349 ft | 157 kts | 228° |
| 2026-05-05 02:35 | 30.71931 | -97.50736 | 6149 ft | 157 kts | 227° |
| 2026-05-05 02:35 | 30.71172 | -97.51641 | 5925 ft | 156 kts | 227° |
| 2026-05-05 02:35 | 30.70414 | -97.52538 | 5732 ft | 155 kts | 227° |
| 2026-05-05 02:36 | 30.69668 | -97.53422 | 5535 ft | 152 kts | 227° |
| 2026-05-05 02:36 | 30.68932 | -97.54293 | 5334 ft | 150 kts | 226° |
| 2026-05-05 02:36 | 30.68205 | -97.55152 | 5141 ft | 148 kts | 226° |
| 2026-05-05 02:36 | 30.67488 | -97.56001 | 4976 ft | 146 kts | 226° |
| 2026-05-05 02:37 | 30.66784 | -97.56833 | 4797 ft | 143 kts | 225° |
| 2026-05-05 02:37 | 30.66088 | -97.57655 | 4628 ft | 142 kts | 224° |
| 2026-05-05 02:37 | 30.65399 | -97.58470 | 4469 ft | 141 kts | 224° |
| 2026-05-05 02:37 | 30.64714 | -97.59280 | 4298 ft | 139 kts | 224° |
| 2026-05-05 02:38 | 30.64050 | -97.60071 | 4158 ft | 134 kts | 223° |
| 2026-05-05 02:38 | 30.63402 | -97.60830 | 4032 ft | 130 kts | 223° |
| 2026-05-05 02:38 | 30.62774 | -97.61569 | 3910 ft | 127 kts | 223° |
| 2026-05-05 02:38 | 30.62160 | -97.62295 | 3777 ft | 124 kts | 222° |
| 2026-05-05 02:39 | 30.61560 | -97.63003 | 3660 ft | 122 kts | 223° |
| 2026-05-05 02:39 | 30.60967 | -97.63703 | 3535 ft | 121 kts | 222° |
| 2026-05-05 02:39 | 30.60376 | -97.64397 | 3457 ft | 118 kts | 221° |
| 2026-05-05 02:39 | 30.59810 | -97.65067 | 3414 ft | 115 kts | 221° |
| 2026-05-05 02:40 | 30.59255 | -97.65722 | 3379 ft | 113 kts | 221° |
| 2026-05-05 02:40 | 30.58710 | -97.66364 | 3341 ft | 111 kts | 221° |
| 2026-05-05 02:40 | 30.58162 | -97.66996 | 3278 ft | 112 kts | 220° |
| 2026-05-05 02:40 | 30.57571 | -97.67595 | 3203 ft | 114 kts | 217° |
| 2026-05-05 02:41 | 30.56966 | -97.68193 | 3130 ft | 115 kts | 217° |
| 2026-05-05 02:41 | 30.56359 | -97.68795 | 3043 ft | 114 kts | 216° |
| 2026-05-05 02:41 | 30.55764 | -97.69389 | 2927 ft | 111 kts | 218° |
| 2026-05-05 02:41 | 30.55180 | -97.69987 | 2815 ft | 113 kts | 218° |
| 2026-05-05 02:42 | 30.54603 | -97.70604 | 2743 ft | 112 kts | 218° |
| 2026-05-05 02:42 | 30.54041 | -97.71235 | 2663 ft | 113 kts | 220° |
| 2026-05-05 02:42 | 30.53502 | -97.71882 | 2587 ft | 110 kts | 220° |
| 2026-05-05 02:42 | 30.52994 | -97.72537 | 2494 ft | 109 kts | 220° |
| 2026-05-05 02:43 | 30.52396 | -97.73026 | 2336 ft | 107 kts | 190° |
| 2026-05-05 02:43 | 30.51727 | -97.72722 | 2270 ft | 113 kts | 141° |
| 2026-05-05 02:43 | 30.51422 | -97.71828 | 2231 ft | 120 kts | 124° |
| 2026-05-05 02:43 | 30.51121 | -97.70932 | 2160 ft | 118 kts | 129° |
| 2026-05-05 02:44 | 30.50758 | -97.70117 | 2166 ft | 111 kts | 134° |
| 2026-05-05 02:44 | 30.50363 | -97.69371 | 2151 ft | 103 kts | 139° |
| 2026-05-05 02:44 | 30.49953 | -97.68742 | 2167 ft | 96 kts | 144° |
| 2026-05-05 02:44 | 30.49508 | -97.68172 | 2174 ft | 94 kts | 147° |
| 2026-05-05 02:45 | 30.49040 | -97.67642 | 2175 ft | 94 kts | 149° |
| 2026-05-05 02:45 | 30.48568 | -97.67126 | 2181 ft | 95 kts | 149° |
| 2026-05-05 02:45 | 30.48061 | -97.66608 | 2141 ft | 99 kts | 147° |
| 2026-05-05 02:45 | 30.47540 | -97.66089 | 2157 ft | 98 kts | 153° |
| 2026-05-05 02:46 | 30.46989 | -97.65619 | 2150 ft | 103 kts | 149° |
| 2026-05-05 02:46 | 30.46456 | -97.65059 | 2174 ft | 102 kts | 146° |
| 2026-05-05 02:46 | 30.45948 | -97.64491 | 2165 ft | 101 kts | 148° |
| 2026-05-05 02:46 | 30.45454 | -97.63906 | 2078 ft | 105 kts | 143° |
| 2026-05-05 02:47 | 30.44950 | -97.63267 | 1988 ft | 105 kts | 142° |
| 2026-05-05 02:47 | 30.44462 | -97.62629 | 1884 ft | 106 kts | 144° |
| 2026-05-05 02:47 | 30.43976 | -97.62006 | 1768 ft | 97 kts | 140° |
| 2026-05-05 02:47 | 30.43565 | -97.61436 | 1595 ft | 92 kts | 144° |
| 2026-05-05 02:48 | 30.43139 | -97.60920 | 1514 ft | 87 kts | 141° |
| 2026-05-05 02:48 | 30.42718 | -97.60395 | 1377 ft | 90 kts | 140° |
| 2026-05-05 02:48 | 30.42332 | -97.59852 | 1244 ft | 85 kts | 138° |
| 2026-05-05 02:48 | 30.41921 | -97.59353 | 1152 ft | 88 kts | 140° |
| 2026-05-05 02:49 | 30.41495 | -97.58822 | 1048 ft | 92 kts | 130° |
| 2026-05-05 02:49 | 30.41084 | -97.58274 | 908 ft | 89 kts | 134° |
| 2026-05-05 02:49 | 30.40668 | -97.57736 | 765 ft | 88 kts | 133° |
| 2026-05-05 02:49 | 30.40275 | -97.57222 | 654 ft | 84 kts | 133° |
| 2026-05-05 02:50 | 30.39908 | -97.56750 | 625 ft | 70 kts | 132° |
| 2026-05-05 02:50 | 30.39655 | -97.56423 | 614 ft | 36 kts | 130° |
| 2026-05-05 02:50 | 30.39562 | -97.56316 | 612 ft | 7 kts | 170° |
| 2026-05-05 02:50 | 30.39521 | -97.56342 | 617 ft | 5 kts | 220° |
| 2026-05-05 02:51 | 30.39510 | -97.56375 | 612 ft | 6 kts | 291° |
| 2026-05-05 02:51 | 30.39545 | -97.56423 | 613 ft | 10 kts | 312° |
| 2026-05-05 02:51 | 30.39582 | -97.56469 | 617 ft | 12 kts | 309° |
| 2026-05-05 02:51 | 30.39648 | -97.56557 | 615 ft | 16 kts | 311° |
| 2026-05-05 02:52 | 30.39722 | -97.56655 | 624 ft | 11 kts | 311° |
| 2026-05-05 02:52 | 30.39759 | -97.56705 | 620 ft | 4 kts | 295° |
| 2026-05-05 02:52 | 30.39790 | -97.56745 | 621 ft | 12 kts | 317° |
| 2026-05-05 02:52 | 30.39861 | -97.56837 | 619 ft | 17 kts | 311° |
| 2026-05-05 02:53 | 30.39940 | -97.56940 | 623 ft | 17 kts | 311° |
| 2026-05-05 02:53 | 30.40015 | -97.57037 | 619 ft | 14 kts | 312° |
| 2026-05-05 02:53 | 30.40055 | -97.57091 | 624 ft | 3 kts | 306° |
| 2026-05-05 02:53 | 30.40064 | -97.57112 | 627 ft | 9 kts | 270° |
| 2026-05-05 02:54 | 30.40035 | -97.57180 | 620 ft | 10 kts | 270° |
| 2026-05-05 02:54 | 30.40002 | -97.57226 | 621 ft | 7 kts | 184° |
| 2026-05-05 02:54 | 30.39952 | -97.57230 | 621 ft | 8 kts | 193° |
| 2026-05-05 02:54 | 30.39914 | -97.57249 | 621 ft | 3 kts | 179° |
| 2026-05-05 02:55 | 30.39903 | -97.57248 | 627 ft | 0 kts | 181° |